sensor_id;sensor_type;location;lat;lon;timestamp;temperature;humidity
11639;DHT22;5875;35.940;126.892;2024-02-16T00:01:30;8.00;99.90
11639;DHT22;5875;35.940;126.892;2024-02-16T00:03:57;8.50;99.90
11639;DHT22;5875;35.940;126.892;2024-02-16T00:06:24;9.00;99.90
11639;DHT22;5875;35.940;126.892;2024-02-16T00:08:51;9.50;99.90
11639;DHT22;5875;35.940;126.892;2024-02-16T00:11:19;9.70;99.90
11639;DHT22;5875;35.940;126.892;2024-02-16T00:13:46;10.10;99.90
11639;DHT22;5875;35.940;126.892;2024-02-16T00:16:13;10.40;99.90
11639;DHT22;5875;35.940;126.892;2024-02-16T00:18:41;10.80;99.90
11639;DHT22;5875;35.940;126.892;2024-02-16T00:21:08;11.10;99.90
11639;DHT22;5875;35.940;126.892;2024-02-16T00:23:38;11.20;99.90
11639;DHT22;5875;35.940;126.892;2024-02-16T00:26:05;11.80;99.90
11639;DHT22;5875;35.940;126.892;2024-02-16T00:28:33;11.90;99.90
11639;DHT22;5875;35.940;126.892;2024-02-16T00:31:00;12.20;99.90
11639;DHT22;5875;35.940;126.892;2024-02-16T00:33:28;12.20;99.90
11639;DHT22;5875;35.940;126.892;2024-02-16T00:35:55;12.60;99.90
11639;DHT22;5875;35.940;126.892;2024-02-16T00:38:23;12.70;99.90
11639;DHT22;5875;35.940;126.892;2024-02-16T00:40:50;12.80;99.90
11639;DHT22;5875;35.940;126.892;2024-02-16T00:43:17;13.10;99.90
11639;DHT22;5875;35.940;126.892;2024-02-16T00:45:44;13.30;99.90
11639;DHT22;5875;35.940;126.892;2024-02-16T00:48:12;13.30;99.90
11639;DHT22;5875;35.940;126.892;2024-02-16T00:50:39;13.70;99.90
11639;DHT22;5875;35.940;126.892;2024-02-16T00:53:08;13.80;99.90
11639;DHT22;5875;35.940;126.892;2024-02-16T00:55:36;13.80;99.90
11639;DHT22;5875;35.940;126.892;2024-02-16T00:58:03;14.40;99.90
11639;DHT22;5875;35.940;126.892;2024-02-16T01:00:31;14.60;99.90
11639;DHT22;5875;35.940;126.892;2024-02-16T01:02:58;15.00;99.90
11639;DHT22;5875;35.940;126.892;2024-02-16T01:05:25;15.00;99.90
11639;DHT22;5875;35.940;126.892;2024-02-16T01:07:52;15.20;99.90
11639;DHT22;5875;35.940;126.892;2024-02-16T01:10:19;15.30;99.90
11639;DHT22;5875;35.940;126.892;2024-02-16T01:12:47;15.40;99.90
11639;DHT22;5875;35.940;126.892;2024-02-16T01:15:14;15.60;99.90
11639;DHT22;5875;35.940;126.892;2024-02-16T01:17:41;15.60;99.90
11639;DHT22;5875;35.940;126.892;2024-02-16T01:20:08;15.70;99.90
11639;DHT22;5875;35.940;126.892;2024-02-16T01:22:39;15.60;99.90
11639;DHT22;5875;35.940;126.892;2024-02-16T01:25:08;15.50;97.20
11639;DHT22;5875;35.940;126.892;2024-02-16T01:27:36;15.90;92.00
11639;DHT22;5875;35.940;126.892;2024-02-16T01:30:03;15.80;79.20
11639;DHT22;5875;35.940;126.892;2024-02-16T01:32:30;15.80;63.30
11639;DHT22;5875;35.940;126.892;2024-02-16T01:34:58;15.90;55.10
11639;DHT22;5875;35.940;126.892;2024-02-16T01:37:25;15.80;43.40
11639;DHT22;5875;35.940;126.892;2024-02-16T01:39:52;16.00;36.70
11639;DHT22;5875;35.940;126.892;2024-02-16T01:42:19;16.40;34.10
11639;DHT22;5875;35.940;126.892;2024-02-16T01:44:46;16.40;23.60
11639;DHT22;5875;35.940;126.892;2024-02-16T01:47:14;16.70;21.40
11639;DHT22;5875;35.940;126.892;2024-02-16T01:49:41;16.80;13.50
11639;DHT22;5875;35.940;126.892;2024-02-16T01:52:09;16.80;10.30
11639;DHT22;5875;35.940;126.892;2024-02-16T01:54:37;16.80;3.60
11639;DHT22;5875;35.940;126.892;2024-02-16T01:57:06;16.60;1.00
11639;DHT22;5875;35.940;126.892;2024-02-16T01:59:34;16.20;1.00
11639;DHT22;5875;35.940;126.892;2024-02-16T02:02:03;16.30;1.00
11639;DHT22;5875;35.940;126.892;2024-02-16T02:04:30;16.60;1.00
11639;DHT22;5875;35.940;126.892;2024-02-16T02:06:57;16.70;1.00
11639;DHT22;5875;35.940;126.892;2024-02-16T02:09:24;17.10;1.00
11639;DHT22;5875;35.940;126.892;2024-02-16T02:11:52;17.10;1.00
11639;DHT22;5875;35.940;126.892;2024-02-16T02:14:22;17.20;1.00
11639;DHT22;5875;35.940;126.892;2024-02-16T02:16:52;17.40;1.00
11639;DHT22;5875;35.940;126.892;2024-02-16T02:19:19;17.20;1.00
11639;DHT22;5875;35.940;126.892;2024-02-16T02:21:46;17.60;1.00
11639;DHT22;5875;35.940;126.892;2024-02-16T02:24:14;17.80;1.00
11639;DHT22;5875;35.940;126.892;2024-02-16T02:26:47;17.80;1.00
11639;DHT22;5875;35.940;126.892;2024-02-16T02:29:14;17.50;1.00
11639;DHT22;5875;35.940;126.892;2024-02-16T02:31:41;17.30;1.00
11639;DHT22;5875;35.940;126.892;2024-02-16T02:34:08;17.00;1.00
11639;DHT22;5875;35.940;126.892;2024-02-16T02:36:37;16.80;1.00
11639;DHT22;5875;35.940;126.892;2024-02-16T02:39:04;16.90;1.00
11639;DHT22;5875;35.940;126.892;2024-02-16T02:41:33;16.50;1.00
11639;DHT22;5875;35.940;126.892;2024-02-16T02:44:01;16.60;1.00
11639;DHT22;5875;35.940;126.892;2024-02-16T02:46:28;16.80;1.00
11639;DHT22;5875;35.940;126.892;2024-02-16T02:48:55;16.50;1.00
11639;DHT22;5875;35.940;126.892;2024-02-16T02:51:22;16.00;1.00
11639;DHT22;5875;35.940;126.892;2024-02-16T02:53:50;15.60;1.00
11639;DHT22;5875;35.940;126.892;2024-02-16T02:56:17;15.80;1.00
11639;DHT22;5875;35.940;126.892;2024-02-16T02:58:44;16.10;1.00
11639;DHT22;5875;35.940;126.892;2024-02-16T03:01:13;16.30;1.00
11639;DHT22;5875;35.940;126.892;2024-02-16T03:03:40;16.10;1.00
11639;DHT22;5875;35.940;126.892;2024-02-16T03:06:09;16.30;1.00
11639;DHT22;5875;35.940;126.892;2024-02-16T03:08:36;16.10;1.00
11639;DHT22;5875;35.940;126.892;2024-02-16T03:11:03;15.80;1.00
11639;DHT22;5875;35.940;126.892;2024-02-16T03:13:32;15.80;1.00
11639;DHT22;5875;35.940;126.892;2024-02-16T03:15:59;16.10;1.00
11639;DHT22;5875;35.940;126.892;2024-02-16T03:18:33;15.50;1.00
11639;DHT22;5875;35.940;126.892;2024-02-16T03:21:00;16.10;1.00
11639;DHT22;5875;35.940;126.892;2024-02-16T03:23:28;16.00;1.00
11639;DHT22;5875;35.940;126.892;2024-02-16T03:25:55;16.30;1.00
11639;DHT22;5875;35.940;126.892;2024-02-16T03:28:23;16.30;1.00
11639;DHT22;5875;35.940;126.892;2024-02-16T03:30:50;15.90;1.00
11639;DHT22;5875;35.940;126.892;2024-02-16T03:33:17;14.30;1.00
11639;DHT22;5875;35.940;126.892;2024-02-16T03:35:44;13.60;1.00
11639;DHT22;5875;35.940;126.892;2024-02-16T03:38:11;13.70;1.00
11639;DHT22;5875;35.940;126.892;2024-02-16T03:40:39;14.30;1.00
11639;DHT22;5875;35.940;126.892;2024-02-16T03:43:07;14.50;1.00
11639;DHT22;5875;35.940;126.892;2024-02-16T03:45:34;15.30;1.00
11639;DHT22;5875;35.940;126.892;2024-02-16T03:48:01;15.40;1.00
11639;DHT22;5875;35.940;126.892;2024-02-16T03:50:29;15.60;1.00
11639;DHT22;5875;35.940;126.892;2024-02-16T03:52:59;15.40;1.00
11639;DHT22;5875;35.940;126.892;2024-02-16T03:55:26;13.80;1.00
11639;DHT22;5875;35.940;126.892;2024-02-16T03:57:53;12.80;1.00
11639;DHT22;5875;35.940;126.892;2024-02-16T04:00:20;13.10;1.00
11639;DHT22;5875;35.940;126.892;2024-02-16T04:02:47;13.80;1.00
11639;DHT22;5875;35.940;126.892;2024-02-16T04:05:14;14.00;1.00
11639;DHT22;5875;35.940;126.892;2024-02-16T04:07:42;14.50;1.00
11639;DHT22;5875;35.940;126.892;2024-02-16T04:10:09;14.20;1.00
11639;DHT22;5875;35.940;126.892;2024-02-16T04:12:36;13.10;1.00
11639;DHT22;5875;35.940;126.892;2024-02-16T04:15:04;13.40;1.00
11639;DHT22;5875;35.940;126.892;2024-02-16T04:17:31;13.90;1.00
11639;DHT22;5875;35.940;126.892;2024-02-16T04:19:58;14.40;1.00
11639;DHT22;5875;35.940;126.892;2024-02-16T04:22:26;14.50;1.00
11639;DHT22;5875;35.940;126.892;2024-02-16T04:24:53;14.60;1.00
11639;DHT22;5875;35.940;126.892;2024-02-16T04:27:20;13.70;1.00
11639;DHT22;5875;35.940;126.892;2024-02-16T04:29:47;14.50;1.00
11639;DHT22;5875;35.940;126.892;2024-02-16T04:32:15;13.80;1.00
11639;DHT22;5875;35.940;126.892;2024-02-16T04:34:42;14.60;1.00
11639;DHT22;5875;35.940;126.892;2024-02-16T04:37:09;15.00;1.00
11639;DHT22;5875;35.940;126.892;2024-02-16T04:39:36;15.20;1.00
11639;DHT22;5875;35.940;126.892;2024-02-16T04:42:04;14.40;1.00
11639;DHT22;5875;35.940;126.892;2024-02-16T04:44:31;14.40;1.00
11639;DHT22;5875;35.940;126.892;2024-02-16T04:46:58;14.50;1.00
11639;DHT22;5875;35.940;126.892;2024-02-16T04:49:26;14.60;1.00
11639;DHT22;5875;35.940;126.892;2024-02-16T04:51:53;14.90;1.00
11639;DHT22;5875;35.940;126.892;2024-02-16T04:54:23;14.90;1.00
11639;DHT22;5875;35.940;126.892;2024-02-16T04:56:50;14.90;1.00
11639;DHT22;5875;35.940;126.892;2024-02-16T04:59:18;15.00;1.00
11639;DHT22;5875;35.940;126.892;2024-02-16T05:01:45;15.00;1.00
11639;DHT22;5875;35.940;126.892;2024-02-16T05:04:13;15.00;1.00
11639;DHT22;5875;35.940;126.892;2024-02-16T05:06:43;15.30;1.00
11639;DHT22;5875;35.940;126.892;2024-02-16T05:09:13;15.50;1.00
11639;DHT22;5875;35.940;126.892;2024-02-16T05:11:44;15.00;1.00
11639;DHT22;5875;35.940;126.892;2024-02-16T05:14:12;15.10;1.00
11639;DHT22;5875;35.940;126.892;2024-02-16T05:16:44;15.40;1.00
11639;DHT22;5875;35.940;126.892;2024-02-16T05:19:11;15.70;1.00
11639;DHT22;5875;35.940;126.892;2024-02-16T05:21:38;15.60;1.00
11639;DHT22;5875;35.940;126.892;2024-02-16T05:24:06;15.50;1.00
11639;DHT22;5875;35.940;126.892;2024-02-16T05:26:33;15.50;1.00
11639;DHT22;5875;35.940;126.892;2024-02-16T05:29:00;15.50;1.00
11639;DHT22;5875;35.940;126.892;2024-02-16T05:31:28;15.50;1.00
11639;DHT22;5875;35.940;126.892;2024-02-16T05:33:58;15.40;1.00
11639;DHT22;5875;35.940;126.892;2024-02-16T05:36:25;15.50;1.00
11639;DHT22;5875;35.940;126.892;2024-02-16T05:38:56;15.30;1.00
11639;DHT22;5875;35.940;126.892;2024-02-16T05:41:32;15.50;1.00
11639;DHT22;5875;35.940;126.892;2024-02-16T05:43:59;15.30;1.00
11639;DHT22;5875;35.940;126.892;2024-02-16T05:46:27;15.40;1.00
11639;DHT22;5875;35.940;126.892;2024-02-16T05:48:54;15.20;1.00
11639;DHT22;5875;35.940;126.892;2024-02-16T05:51:21;15.20;1.00
11639;DHT22;5875;35.940;126.892;2024-02-16T05:53:49;15.30;1.00
11639;DHT22;5875;35.940;126.892;2024-02-16T05:56:16;15.40;1.00
11639;DHT22;5875;35.940;126.892;2024-02-16T05:58:43;15.30;1.00
11639;DHT22;5875;35.940;126.892;2024-02-16T06:01:10;15.30;1.00
11639;DHT22;5875;35.940;126.892;2024-02-16T06:03:41;15.40;1.00
11639;DHT22;5875;35.940;126.892;2024-02-16T06:06:09;15.50;1.00
11639;DHT22;5875;35.940;126.892;2024-02-16T06:08:36;15.50;1.00
11639;DHT22;5875;35.940;126.892;2024-02-16T06:11:03;15.30;1.00
11639;DHT22;5875;35.940;126.892;2024-02-16T06:13:33;15.30;1.00
11639;DHT22;5875;35.940;126.892;2024-02-16T06:16:00;15.40;1.00
11639;DHT22;5875;35.940;126.892;2024-02-16T06:18:28;15.40;1.00
11639;DHT22;5875;35.940;126.892;2024-02-16T06:20:56;15.00;1.00
11639;DHT22;5875;35.940;126.892;2024-02-16T06:23:23;14.90;1.00
11639;DHT22;5875;35.940;126.892;2024-02-16T06:25:50;15.10;1.00
11639;DHT22;5875;35.940;126.892;2024-02-16T06:28:17;15.10;1.00
11639;DHT22;5875;35.940;126.892;2024-02-16T06:30:44;15.10;1.00
11639;DHT22;5875;35.940;126.892;2024-02-16T06:33:12;15.00;1.00
11639;DHT22;5875;35.940;126.892;2024-02-16T06:35:39;15.20;1.00
11639;DHT22;5875;35.940;126.892;2024-02-16T06:38:06;15.30;1.00
11639;DHT22;5875;35.940;126.892;2024-02-16T06:40:33;15.10;1.00
11639;DHT22;5875;35.940;126.892;2024-02-16T06:43:00;15.00;1.00
11639;DHT22;5875;35.940;126.892;2024-02-16T06:45:27;15.00;1.00
11639;DHT22;5875;35.940;126.892;2024-02-16T06:47:56;14.80;1.00
11639;DHT22;5875;35.940;126.892;2024-02-16T06:50:23;14.90;1.00
11639;DHT22;5875;35.940;126.892;2024-02-16T06:52:50;14.90;1.00
11639;DHT22;5875;35.940;126.892;2024-02-16T06:55:17;15.00;1.00
11639;DHT22;5875;35.940;126.892;2024-02-16T06:57:45;14.80;1.00
11639;DHT22;5875;35.940;126.892;2024-02-16T07:00:15;14.70;1.00
11639;DHT22;5875;35.940;126.892;2024-02-16T07:02:43;14.70;1.00
11639;DHT22;5875;35.940;126.892;2024-02-16T07:05:11;14.70;1.00
11639;DHT22;5875;35.940;126.892;2024-02-16T07:07:39;14.70;1.00
11639;DHT22;5875;35.940;126.892;2024-02-16T07:10:07;14.70;1.00
11639;DHT22;5875;35.940;126.892;2024-02-16T07:12:42;14.60;1.00
11639;DHT22;5875;35.940;126.892;2024-02-16T07:15:11;14.50;1.00
11639;DHT22;5875;35.940;126.892;2024-02-16T07:17:39;14.40;1.00
11639;DHT22;5875;35.940;126.892;2024-02-16T07:20:06;14.30;1.00
11639;DHT22;5875;35.940;126.892;2024-02-16T07:22:34;14.30;1.00
11639;DHT22;5875;35.940;126.892;2024-02-16T07:25:01;14.30;1.00
11639;DHT22;5875;35.940;126.892;2024-02-16T07:27:29;14.50;1.00
11639;DHT22;5875;35.940;126.892;2024-02-16T07:29:56;14.40;1.00
11639;DHT22;5875;35.940;126.892;2024-02-16T07:32:23;14.40;1.00
11639;DHT22;5875;35.940;126.892;2024-02-16T07:34:50;14.30;1.00
11639;DHT22;5875;35.940;126.892;2024-02-16T07:37:17;14.30;1.00
11639;DHT22;5875;35.940;126.892;2024-02-16T07:39:45;14.30;1.00
11639;DHT22;5875;35.940;126.892;2024-02-16T07:42:12;14.10;1.00
11639;DHT22;5875;35.940;126.892;2024-02-16T07:44:39;14.00;1.00
11639;DHT22;5875;35.940;126.892;2024-02-16T07:47:06;13.90;1.00
11639;DHT22;5875;35.940;126.892;2024-02-16T07:49:33;13.80;1.00
11639;DHT22;5875;35.940;126.892;2024-02-16T07:52:04;13.60;1.00
11639;DHT22;5875;35.940;126.892;2024-02-16T07:54:31;13.60;1.00
11639;DHT22;5875;35.940;126.892;2024-02-16T07:56:58;13.50;1.00
11639;DHT22;5875;35.940;126.892;2024-02-16T07:59:26;13.50;1.00
11639;DHT22;5875;35.940;126.892;2024-02-16T08:01:53;13.40;1.00
11639;DHT22;5875;35.940;126.892;2024-02-16T08:04:20;13.20;1.00
11639;DHT22;5875;35.940;126.892;2024-02-16T08:06:47;13.20;1.00
11639;DHT22;5875;35.940;126.892;2024-02-16T08:09:14;13.00;1.00
11639;DHT22;5875;35.940;126.892;2024-02-16T08:11:42;12.90;1.00
11639;DHT22;5875;35.940;126.892;2024-02-16T08:14:09;12.80;1.00
11639;DHT22;5875;35.940;126.892;2024-02-16T08:16:36;12.70;1.00
11639;DHT22;5875;35.940;126.892;2024-02-16T08:19:03;12.60;1.00
11639;DHT22;5875;35.940;126.892;2024-02-16T08:21:30;12.70;1.00
11639;DHT22;5875;35.940;126.892;2024-02-16T08:23:57;12.50;1.00
11639;DHT22;5875;35.940;126.892;2024-02-16T08:26:27;12.50;1.00
11639;DHT22;5875;35.940;126.892;2024-02-16T08:28:54;12.30;1.00
11639;DHT22;5875;35.940;126.892;2024-02-16T08:31:22;12.20;1.00
11639;DHT22;5875;35.940;126.892;2024-02-16T08:33:50;12.20;1.00
11639;DHT22;5875;35.940;126.892;2024-02-16T08:36:17;12.00;1.00
11639;DHT22;5875;35.940;126.892;2024-02-16T08:38:44;11.90;1.00
11639;DHT22;5875;35.940;126.892;2024-02-16T08:41:11;11.90;1.00
11639;DHT22;5875;35.940;126.892;2024-02-16T08:43:38;11.80;1.00
11639;DHT22;5875;35.940;126.892;2024-02-16T08:46:05;11.70;1.00
11639;DHT22;5875;35.940;126.892;2024-02-16T08:48:34;11.70;1.00
11639;DHT22;5875;35.940;126.892;2024-02-16T08:51:01;11.50;1.00
11639;DHT22;5875;35.940;126.892;2024-02-16T08:53:28;11.30;1.00
11639;DHT22;5875;35.940;126.892;2024-02-16T08:55:55;11.30;1.00
11639;DHT22;5875;35.940;126.892;2024-02-16T08:58:23;11.10;1.00
11639;DHT22;5875;35.940;126.892;2024-02-16T09:00:53;11.00;1.00
11639;DHT22;5875;35.940;126.892;2024-02-16T09:03:20;11.00;1.00
11639;DHT22;5875;35.940;126.892;2024-02-16T09:05:50;10.90;1.00
11639;DHT22;5875;35.940;126.892;2024-02-16T09:08:20;10.80;1.00
11639;DHT22;5875;35.940;126.892;2024-02-16T09:10:47;10.60;1.00
11639;DHT22;5875;35.940;126.892;2024-02-16T09:13:15;10.50;1.00
11639;DHT22;5875;35.940;126.892;2024-02-16T09:15:42;10.30;1.00
11639;DHT22;5875;35.940;126.892;2024-02-16T09:18:09;10.20;1.00
11639;DHT22;5875;35.940;126.892;2024-02-16T09:20:37;10.00;1.00
11639;DHT22;5875;35.940;126.892;2024-02-16T09:23:04;9.90;1.00
11639;DHT22;5875;35.940;126.892;2024-02-16T09:25:31;9.80;1.00
11639;DHT22;5875;35.940;126.892;2024-02-16T09:27:58;9.70;1.00
11639;DHT22;5875;35.940;126.892;2024-02-16T09:30:25;9.50;1.00
11639;DHT22;5875;35.940;126.892;2024-02-16T09:32:54;9.30;1.00
11639;DHT22;5875;35.940;126.892;2024-02-16T09:35:21;9.30;1.00
11639;DHT22;5875;35.940;126.892;2024-02-16T09:37:48;9.20;1.00
11639;DHT22;5875;35.940;126.892;2024-02-16T09:40:15;9.30;1.00
11639;DHT22;5875;35.940;126.892;2024-02-16T09:42:48;9.20;1.00
11639;DHT22;5875;35.940;126.892;2024-02-16T09:45:16;9.10;1.00
11639;DHT22;5875;35.940;126.892;2024-02-16T09:47:46;9.00;1.00
11639;DHT22;5875;35.940;126.892;2024-02-16T09:50:16;8.80;1.00
11639;DHT22;5875;35.940;126.892;2024-02-16T09:52:50;8.70;1.00
11639;DHT22;5875;35.940;126.892;2024-02-16T09:55:20;8.60;1.00
11639;DHT22;5875;35.940;126.892;2024-02-16T09:57:59;8.40;1.00
11639;DHT22;5875;35.940;126.892;2024-02-16T10:00:26;8.20;1.00
11639;DHT22;5875;35.940;126.892;2024-02-16T10:02:54;7.90;1.00
11639;DHT22;5875;35.940;126.892;2024-02-16T10:05:21;7.80;2.90
11639;DHT22;5875;35.940;126.892;2024-02-16T10:07:49;7.80;4.90
11639;DHT22;5875;35.940;126.892;2024-02-16T10:10:24;7.80;9.30
11639;DHT22;5875;35.940;126.892;2024-02-16T10:13:06;7.80;11.70
11639;DHT22;5875;35.940;126.892;2024-02-16T10:15:35;7.80;12.10
11639;DHT22;5875;35.940;126.892;2024-02-16T10:18:03;7.60;13.00
11639;DHT22;5875;35.940;126.892;2024-02-16T10:20:32;7.60;15.80
11639;DHT22;5875;35.940;126.892;2024-02-16T10:23:10;7.70;16.60
11639;DHT22;5875;35.940;126.892;2024-02-16T10:25:40;7.70;18.60
11639;DHT22;5875;35.940;126.892;2024-02-16T10:28:09;7.50;22.10
11639;DHT22;5875;35.940;126.892;2024-02-16T10:30:41;7.30;25.30
11639;DHT22;5875;35.940;126.892;2024-02-16T10:33:12;7.10;29.50
11639;DHT22;5875;35.940;126.892;2024-02-16T10:35:39;7.00;33.80
11639;DHT22;5875;35.940;126.892;2024-02-16T10:38:07;7.00;36.90
11639;DHT22;5875;35.940;126.892;2024-02-16T10:40:39;7.00;39.40
11639;DHT22;5875;35.940;126.892;2024-02-16T10:43:08;6.80;40.70
11639;DHT22;5875;35.940;126.892;2024-02-16T10:45:41;6.80;43.30
11639;DHT22;5875;35.940;126.892;2024-02-16T10:48:10;6.70;44.40
11639;DHT22;5875;35.940;126.892;2024-02-16T10:50:38;6.70;47.20
11639;DHT22;5875;35.940;126.892;2024-02-16T10:53:23;6.60;50.70
11639;DHT22;5875;35.940;126.892;2024-02-16T10:55:51;6.50;54.60
11639;DHT22;5875;35.940;126.892;2024-02-16T10:58:21;6.50;54.30
11639;DHT22;5875;35.940;126.892;2024-02-16T11:00:55;6.50;57.60
11639;DHT22;5875;35.940;126.892;2024-02-16T11:03:24;6.60;56.90
11639;DHT22;5875;35.940;126.892;2024-02-16T11:05:52;6.50;56.60
11639;DHT22;5875;35.940;126.892;2024-02-16T11:08:21;6.50;56.90
11639;DHT22;5875;35.940;126.892;2024-02-16T11:11:01;6.50;58.80
11639;DHT22;5875;35.940;126.892;2024-02-16T11:13:35;6.40;57.50
11639;DHT22;5875;35.940;126.892;2024-02-16T11:16:09;6.50;61.90
11639;DHT22;5875;35.940;126.892;2024-02-16T11:18:41;6.50;64.10
11639;DHT22;5875;35.940;126.892;2024-02-16T11:21:16;6.40;63.60
11639;DHT22;5875;35.940;126.892;2024-02-16T11:23:44;6.50;55.80
11639;DHT22;5875;35.940;126.892;2024-02-16T11:26:14;6.50;55.70
11639;DHT22;5875;35.940;126.892;2024-02-16T11:28:44;6.40;56.70
11639;DHT22;5875;35.940;126.892;2024-02-16T11:31:12;6.40;52.00
11639;DHT22;5875;35.940;126.892;2024-02-16T11:33:43;6.40;49.90
11639;DHT22;5875;35.940;126.892;2024-02-16T11:36:11;6.20;51.10
11639;DHT22;5875;35.940;126.892;2024-02-16T11:38:42;6.10;54.50
11639;DHT22;5875;35.940;126.892;2024-02-16T11:41:09;6.10;56.10
11639;DHT22;5875;35.940;126.892;2024-02-16T11:43:37;6.10;56.40
11639;DHT22;5875;35.940;126.892;2024-02-16T11:46:15;6.20;53.80
11639;DHT22;5875;35.940;126.892;2024-02-16T11:48:45;6.20;50.00
11639;DHT22;5875;35.940;126.892;2024-02-16T11:51:15;6.10;48.40
11639;DHT22;5875;35.940;126.892;2024-02-16T11:53:43;6.10;46.90
11639;DHT22;5875;35.940;126.892;2024-02-16T11:56:22;6.10;46.00
11639;DHT22;5875;35.940;126.892;2024-02-16T11:58:51;6.00;50.30
11639;DHT22;5875;35.940;126.892;2024-02-16T12:01:18;5.80;57.90
11639;DHT22;5875;35.940;126.892;2024-02-16T12:03:45;5.60;68.70
11639;DHT22;5875;35.940;126.892;2024-02-16T12:06:20;5.40;75.20
11639;DHT22;5875;35.940;126.892;2024-02-16T12:08:54;5.20;79.30
11639;DHT22;5875;35.940;126.892;2024-02-16T12:11:23;5.00;89.00
11639;DHT22;5875;35.940;126.892;2024-02-16T12:13:50;5.20;90.80
11639;DHT22;5875;35.940;126.892;2024-02-16T12:16:19;5.20;80.40
11639;DHT22;5875;35.940;126.892;2024-02-16T12:18:46;5.20;86.50
11639;DHT22;5875;35.940;126.892;2024-02-16T12:21:18;5.30;84.70
11639;DHT22;5875;35.940;126.892;2024-02-16T12:23:47;5.40;83.00
11639;DHT22;5875;35.940;126.892;2024-02-16T12:26:15;5.40;79.00
11639;DHT22;5875;35.940;126.892;2024-02-16T12:28:42;5.40;77.60
11639;DHT22;5875;35.940;126.892;2024-02-16T12:31:09;5.20;81.80
11639;DHT22;5875;35.940;126.892;2024-02-16T12:33:36;5.10;85.10
11639;DHT22;5875;35.940;126.892;2024-02-16T12:36:04;5.10;87.80
11639;DHT22;5875;35.940;126.892;2024-02-16T12:38:31;4.90;95.20
11639;DHT22;5875;35.940;126.892;2024-02-16T12:40:58;4.60;99.90
11639;DHT22;5875;35.940;126.892;2024-02-16T12:43:26;4.40;99.90
11639;DHT22;5875;35.940;126.892;2024-02-16T12:45:53;4.20;99.90
11639;DHT22;5875;35.940;126.892;2024-02-16T12:48:24;4.10;99.90
11639;DHT22;5875;35.940;126.892;2024-02-16T12:50:51;4.00;99.90
11639;DHT22;5875;35.940;126.892;2024-02-16T12:53:19;3.90;99.90
11639;DHT22;5875;35.940;126.892;2024-02-16T12:55:47;3.90;99.90
11639;DHT22;5875;35.940;126.892;2024-02-16T12:58:14;3.70;99.90
11639;DHT22;5875;35.940;126.892;2024-02-16T13:00:41;3.70;99.90
11639;DHT22;5875;35.940;126.892;2024-02-16T13:03:09;3.60;99.90
11639;DHT22;5875;35.940;126.892;2024-02-16T13:05:36;3.60;99.90
11639;DHT22;5875;35.940;126.892;2024-02-16T13:08:03;3.50;99.90
11639;DHT22;5875;35.940;126.892;2024-02-16T13:10:30;3.40;99.90
11639;DHT22;5875;35.940;126.892;2024-02-16T13:12:57;3.50;99.90
11639;DHT22;5875;35.940;126.892;2024-02-16T13:15:25;3.50;99.90
11639;DHT22;5875;35.940;126.892;2024-02-16T13:17:52;3.50;99.90
11639;DHT22;5875;35.940;126.892;2024-02-16T13:20:19;3.40;99.90
11639;DHT22;5875;35.940;126.892;2024-02-16T13:22:46;3.40;99.90
11639;DHT22;5875;35.940;126.892;2024-02-16T13:25:14;3.30;99.90
11639;DHT22;5875;35.940;126.892;2024-02-16T13:27:42;3.40;99.90
11639;DHT22;5875;35.940;126.892;2024-02-16T13:30:09;3.50;99.90
11639;DHT22;5875;35.940;126.892;2024-02-16T13:32:36;3.60;99.90
11639;DHT22;5875;35.940;126.892;2024-02-16T13:35:09;3.70;99.90
11639;DHT22;5875;35.940;126.892;2024-02-16T13:37:36;3.70;99.90
11639;DHT22;5875;35.940;126.892;2024-02-16T13:40:03;3.50;99.90
11639;DHT22;5875;35.940;126.892;2024-02-16T13:42:33;3.50;99.90
11639;DHT22;5875;35.940;126.892;2024-02-16T13:45:01;3.50;99.90
11639;DHT22;5875;35.940;126.892;2024-02-16T13:47:28;3.40;99.90
11639;DHT22;5875;35.940;126.892;2024-02-16T13:49:55;3.30;99.90
11639;DHT22;5875;35.940;126.892;2024-02-16T13:52:24;3.40;99.90
11639;DHT22;5875;35.940;126.892;2024-02-16T13:54:51;3.20;99.90
11639;DHT22;5875;35.940;126.892;2024-02-16T13:57:19;3.20;99.90
11639;DHT22;5875;35.940;126.892;2024-02-16T13:59:46;3.10;99.90
11639;DHT22;5875;35.940;126.892;2024-02-16T14:02:16;3.10;99.90
11639;DHT22;5875;35.940;126.892;2024-02-16T14:04:43;3.20;99.90
11639;DHT22;5875;35.940;126.892;2024-02-16T14:07:11;3.10;99.90
11639;DHT22;5875;35.940;126.892;2024-02-16T14:09:38;3.10;99.90
11639;DHT22;5875;35.940;126.892;2024-02-16T14:12:06;3.10;99.90
11639;DHT22;5875;35.940;126.892;2024-02-16T14:14:33;3.20;99.90
11639;DHT22;5875;35.940;126.892;2024-02-16T14:17:00;3.30;99.90
11639;DHT22;5875;35.940;126.892;2024-02-16T14:19:27;3.20;99.90
11639;DHT22;5875;35.940;126.892;2024-02-16T14:21:56;3.20;99.90
11639;DHT22;5875;35.940;126.892;2024-02-16T14:24:23;3.30;99.90
11639;DHT22;5875;35.940;126.892;2024-02-16T14:26:51;3.40;99.90
11639;DHT22;5875;35.940;126.892;2024-02-16T14:29:19;3.30;99.90
11639;DHT22;5875;35.940;126.892;2024-02-16T14:31:46;3.40;99.90
11639;DHT22;5875;35.940;126.892;2024-02-16T14:34:15;3.50;99.90
11639;DHT22;5875;35.940;126.892;2024-02-16T14:36:42;3.60;99.90
11639;DHT22;5875;35.940;126.892;2024-02-16T14:39:12;3.60;99.90
11639;DHT22;5875;35.940;126.892;2024-02-16T14:41:39;3.70;99.90
11639;DHT22;5875;35.940;126.892;2024-02-16T14:44:07;3.60;99.90
11639;DHT22;5875;35.940;126.892;2024-02-16T14:46:34;3.40;99.90
11639;DHT22;5875;35.940;126.892;2024-02-16T14:49:01;3.20;99.90
11639;DHT22;5875;35.940;126.892;2024-02-16T14:51:28;3.20;99.90
11639;DHT22;5875;35.940;126.892;2024-02-16T14:53:56;3.10;99.90
11639;DHT22;5875;35.940;126.892;2024-02-16T14:56:23;3.30;99.90
11639;DHT22;5875;35.940;126.892;2024-02-16T14:58:50;3.40;99.90
11639;DHT22;5875;35.940;126.892;2024-02-16T15:01:17;3.40;99.90
11639;DHT22;5875;35.940;126.892;2024-02-16T15:03:44;3.50;99.90
11639;DHT22;5875;35.940;126.892;2024-02-16T15:06:12;3.60;99.90
11639;DHT22;5875;35.940;126.892;2024-02-16T15:08:42;3.60;99.90
11639;DHT22;5875;35.940;126.892;2024-02-16T15:11:09;3.60;99.90
11639;DHT22;5875;35.940;126.892;2024-02-16T15:13:36;3.50;99.90
11639;DHT22;5875;35.940;126.892;2024-02-16T15:16:05;3.40;99.90
11639;DHT22;5875;35.940;126.892;2024-02-16T15:18:35;3.30;99.90
11639;DHT22;5875;35.940;126.892;2024-02-16T15:21:02;3.30;99.90
11639;DHT22;5875;35.940;126.892;2024-02-16T15:23:29;3.30;99.90
11639;DHT22;5875;35.940;126.892;2024-02-16T15:25:57;3.30;99.90
11639;DHT22;5875;35.940;126.892;2024-02-16T15:28:25;3.30;99.90
11639;DHT22;5875;35.940;126.892;2024-02-16T15:30:52;3.30;99.90
11639;DHT22;5875;35.940;126.892;2024-02-16T15:33:19;3.30;99.90
11639;DHT22;5875;35.940;126.892;2024-02-16T15:35:49;3.20;99.90